sensor_id;sensor_type;location;lat;lon;timestamp;temperature;humidity
21762;DHT22;11203;50.870;20.682;2022-12-07T00:01:32;1.10;1.00
21762;DHT22;11203;50.870;20.682;2022-12-07T00:04:01;1.00;1.00
21762;DHT22;11203;50.870;20.682;2022-12-07T00:06:36;1.10;1.00
21762;DHT22;11203;50.870;20.682;2022-12-07T00:09:05;1.00;1.00
21762;DHT22;11203;50.870;20.682;2022-12-07T00:11:32;1.00;1.00
21762;DHT22;11203;50.870;20.682;2022-12-07T00:14:01;1.00;1.00
21762;DHT22;11203;50.870;20.682;2022-12-07T00:16:32;1.00;1.00
21762;DHT22;11203;50.870;20.682;2022-12-07T00:18:59;1.00;1.00
21762;DHT22;11203;50.870;20.682;2022-12-07T00:21:28;1.00;1.00
21762;DHT22;11203;50.870;20.682;2022-12-07T00:23:56;1.00;1.00
21762;DHT22;11203;50.870;20.682;2022-12-07T00:26:27;1.00;1.00
21762;DHT22;11203;50.870;20.682;2022-12-07T00:28:56;1.10;1.00
21762;DHT22;11203;50.870;20.682;2022-12-07T00:31:28;1.20;1.00
21762;DHT22;11203;50.870;20.682;2022-12-07T00:33:56;1.00;1.00
21762;DHT22;11203;50.870;20.682;2022-12-07T00:36:24;1.10;1.00
21762;DHT22;11203;50.870;20.682;2022-12-07T00:38:51;1.00;1.00
21762;DHT22;11203;50.870;20.682;2022-12-07T00:41:20;1.00;1.00
21762;DHT22;11203;50.870;20.682;2022-12-07T00:43:48;1.00;1.00
21762;DHT22;11203;50.870;20.682;2022-12-07T00:46:15;1.00;1.00
21762;DHT22;11203;50.870;20.682;2022-12-07T00:48:42;1.10;1.00
21762;DHT22;11203;50.870;20.682;2022-12-07T00:51:10;0.90;1.00
21762;DHT22;11203;50.870;20.682;2022-12-07T00:53:38;1.00;1.00
21762;DHT22;11203;50.870;20.682;2022-12-07T00:56:09;1.00;1.00
21762;DHT22;11203;50.870;20.682;2022-12-07T00:58:39;1.00;1.00
21762;DHT22;11203;50.870;20.682;2022-12-07T01:01:06;1.10;1.00
21762;DHT22;11203;50.870;20.682;2022-12-07T01:03:33;1.10;1.00
21762;DHT22;11203;50.870;20.682;2022-12-07T01:05:59;1.00;1.00
21762;DHT22;11203;50.870;20.682;2022-12-07T01:08:27;1.00;1.00
21762;DHT22;11203;50.870;20.682;2022-12-07T01:11:03;1.00;1.00
21762;DHT22;11203;50.870;20.682;2022-12-07T01:13:31;1.00;1.00
21762;DHT22;11203;50.870;20.682;2022-12-07T01:15:59;1.00;1.00
21762;DHT22;11203;50.870;20.682;2022-12-07T01:18:27;1.00;1.00
21762;DHT22;11203;50.870;20.682;2022-12-07T01:20:58;1.00;1.00
21762;DHT22;11203;50.870;20.682;2022-12-07T01:23:25;1.00;1.00
21762;DHT22;11203;50.870;20.682;2022-12-07T01:26:00;1.00;1.00
21762;DHT22;11203;50.870;20.682;2022-12-07T01:28:28;1.00;1.00
21762;DHT22;11203;50.870;20.682;2022-12-07T01:31:03;1.00;1.00
21762;DHT22;11203;50.870;20.682;2022-12-07T01:33:34;1.00;1.00
21762;DHT22;11203;50.870;20.682;2022-12-07T01:36:12;1.00;1.00
21762;DHT22;11203;50.870;20.682;2022-12-07T01:38:39;1.00;1.00
21762;DHT22;11203;50.870;20.682;2022-12-07T01:41:05;1.00;1.00
21762;DHT22;11203;50.870;20.682;2022-12-07T01:43:33;1.00;1.00
21762;DHT22;11203;50.870;20.682;2022-12-07T01:46:01;1.10;1.00
21762;DHT22;11203;50.870;20.682;2022-12-07T01:48:36;1.00;1.00
21762;DHT22;11203;50.870;20.682;2022-12-07T01:51:09;1.10;1.00
21762;DHT22;11203;50.870;20.682;2022-12-07T01:53:40;1.10;1.00
21762;DHT22;11203;50.870;20.682;2022-12-07T01:56:11;1.00;1.00
21762;DHT22;11203;50.870;20.682;2022-12-07T01:58:40;1.00;1.00
21762;DHT22;11203;50.870;20.682;2022-12-07T02:01:07;1.10;1.00
21762;DHT22;11203;50.870;20.682;2022-12-07T02:03:40;1.10;1.00
21762;DHT22;11203;50.870;20.682;2022-12-07T02:06:08;1.10;1.00
21762;DHT22;11203;50.870;20.682;2022-12-07T02:08:36;1.10;1.00
21762;DHT22;11203;50.870;20.682;2022-12-07T02:11:03;1.00;1.00
21762;DHT22;11203;50.870;20.682;2022-12-07T02:13:33;1.00;1.00
21762;DHT22;11203;50.870;20.682;2022-12-07T02:21:52;1.00;1.00
21762;DHT22;11203;50.870;20.682;2022-12-07T02:27:34;1.00;1.00
21762;DHT22;11203;50.870;20.682;2022-12-07T02:30:19;1.00;1.00
21762;DHT22;11203;50.870;20.682;2022-12-07T02:33:15;1.00;1.00
21762;DHT22;11203;50.870;20.682;2022-12-07T02:35:54;1.00;1.00
21762;DHT22;11203;50.870;20.682;2022-12-07T02:38:37;1.00;1.00
21762;DHT22;11203;50.870;20.682;2022-12-07T02:41:11;1.00;1.00
21762;DHT22;11203;50.870;20.682;2022-12-07T02:43:53;1.00;1.00
21762;DHT22;11203;50.870;20.682;2022-12-07T02:46:24;1.00;1.00
21762;DHT22;11203;50.870;20.682;2022-12-07T02:48:56;1.00;1.00
21762;DHT22;11203;50.870;20.682;2022-12-07T02:51:25;1.00;1.00
21762;DHT22;11203;50.870;20.682;2022-12-07T02:53:51;1.00;1.00
21762;DHT22;11203;50.870;20.682;2022-12-07T03:02:01;1.00;1.00
21762;DHT22;11203;50.870;20.682;2022-12-07T03:08:02;1.00;1.00
21762;DHT22;11203;50.870;20.682;2022-12-07T03:13:54;1.00;1.00
21762;DHT22;11203;50.870;20.682;2022-12-07T03:16:30;1.00;1.00
21762;DHT22;11203;50.870;20.682;2022-12-07T03:19:10;1.00;1.00
21762;DHT22;11203;50.870;20.682;2022-12-07T03:22:01;1.00;1.00
21762;DHT22;11203;50.870;20.682;2022-12-07T03:24:35;1.00;1.00
21762;DHT22;11203;50.870;20.682;2022-12-07T03:27:09;1.00;1.00
21762;DHT22;11203;50.870;20.682;2022-12-07T03:29:56;1.00;1.00
21762;DHT22;11203;50.870;20.682;2022-12-07T03:32:34;1.00;1.00
21762;DHT22;11203;50.870;20.682;2022-12-07T03:35:19;1.10;1.00
21762;DHT22;11203;50.870;20.682;2022-12-07T03:37:54;1.00;1.00
21762;DHT22;11203;50.870;20.682;2022-12-07T03:40:37;0.90;1.00
21762;DHT22;11203;50.870;20.682;2022-12-07T03:43:07;1.00;1.00
21762;DHT22;11203;50.870;20.682;2022-12-07T03:45:45;1.00;1.00
21762;DHT22;11203;50.870;20.682;2022-12-07T03:54:51;0.90;1.00
21762;DHT22;11203;50.870;20.682;2022-12-07T03:57:35;0.90;1.00
21762;DHT22;11203;50.870;20.682;2022-12-07T04:00:04;0.90;1.00
21762;DHT22;11203;50.870;20.682;2022-12-07T04:02:32;0.90;1.00
21762;DHT22;11203;50.870;20.682;2022-12-07T04:04:59;1.00;1.00
21762;DHT22;11203;50.870;20.682;2022-12-07T04:07:25;0.90;1.00
21762;DHT22;11203;50.870;20.682;2022-12-07T04:09:51;1.00;1.00
21762;DHT22;11203;50.870;20.682;2022-12-07T04:12:21;0.90;1.00
21762;DHT22;11203;50.870;20.682;2022-12-07T04:14:47;0.90;1.00
21762;DHT22;11203;50.870;20.682;2022-12-07T04:17:13;1.00;1.00
21762;DHT22;11203;50.870;20.682;2022-12-07T04:19:40;1.00;1.00
21762;DHT22;11203;50.870;20.682;2022-12-07T04:22:06;1.50;1.00
21762;DHT22;11203;50.870;20.682;2022-12-07T04:24:33;0.90;1.00
21762;DHT22;11203;50.870;20.682;2022-12-07T04:26:59;0.90;1.00
21762;DHT22;11203;50.870;20.682;2022-12-07T04:29:26;1.00;1.00
21762;DHT22;11203;50.870;20.682;2022-12-07T04:31:52;1.00;1.00
21762;DHT22;11203;50.870;20.682;2022-12-07T04:34:19;1.00;1.00
21762;DHT22;11203;50.870;20.682;2022-12-07T04:36:46;0.90;1.00
21762;DHT22;11203;50.870;20.682;2022-12-07T04:39:24;1.00;1.00
21762;DHT22;11203;50.870;20.682;2022-12-07T04:41:50;0.90;1.00
21762;DHT22;11203;50.870;20.682;2022-12-07T04:44:17;1.00;1.00
21762;DHT22;11203;50.870;20.682;2022-12-07T04:46:43;1.00;1.00
21762;DHT22;11203;50.870;20.682;2022-12-07T04:49:10;0.90;1.00
21762;DHT22;11203;50.870;20.682;2022-12-07T04:51:36;0.90;1.00
21762;DHT22;11203;50.870;20.682;2022-12-07T04:54:03;0.90;1.00
21762;DHT22;11203;50.870;20.682;2022-12-07T04:56:29;0.90;1.00
21762;DHT22;11203;50.870;20.682;2022-12-07T04:58:55;0.90;1.00
21762;DHT22;11203;50.870;20.682;2022-12-07T05:01:22;0.90;1.00
21762;DHT22;11203;50.870;20.682;2022-12-07T05:03:50;0.90;1.00
21762;DHT22;11203;50.870;20.682;2022-12-07T05:06:16;0.90;1.00
21762;DHT22;11203;50.870;20.682;2022-12-07T05:08:43;0.90;1.00
21762;DHT22;11203;50.870;20.682;2022-12-07T05:11:11;0.90;1.00
21762;DHT22;11203;50.870;20.682;2022-12-07T05:14:01;0.90;1.00
21762;DHT22;11203;50.870;20.682;2022-12-07T05:16:28;0.80;1.00
21762;DHT22;11203;50.870;20.682;2022-12-07T05:18:55;0.90;1.00
21762;DHT22;11203;50.870;20.682;2022-12-07T05:21:21;0.90;1.00
21762;DHT22;11203;50.870;20.682;2022-12-07T05:23:48;0.90;1.00
21762;DHT22;11203;50.870;20.682;2022-12-07T05:26:14;0.90;1.00
21762;DHT22;11203;50.870;20.682;2022-12-07T05:28:40;0.90;1.00
21762;DHT22;11203;50.870;20.682;2022-12-07T05:31:06;1.10;1.00
21762;DHT22;11203;50.870;20.682;2022-12-07T05:33:32;0.90;1.00
21762;DHT22;11203;50.870;20.682;2022-12-07T05:35:58;0.90;1.00
21762;DHT22;11203;50.870;20.682;2022-12-07T05:38:25;0.90;1.00
21762;DHT22;11203;50.870;20.682;2022-12-07T05:40:51;0.90;1.00
21762;DHT22;11203;50.870;20.682;2022-12-07T05:43:17;0.90;1.00
21762;DHT22;11203;50.870;20.682;2022-12-07T05:45:43;0.90;1.00
21762;DHT22;11203;50.870;20.682;2022-12-07T05:48:09;0.90;1.00
21762;DHT22;11203;50.870;20.682;2022-12-07T05:50:35;0.90;1.00
21762;DHT22;11203;50.870;20.682;2022-12-07T05:53:02;0.90;1.00
21762;DHT22;11203;50.870;20.682;2022-12-07T05:55:28;0.90;1.00
21762;DHT22;11203;50.870;20.682;2022-12-07T05:57:54;0.80;1.00
21762;DHT22;11203;50.870;20.682;2022-12-07T06:00:48;0.90;1.00
21762;DHT22;11203;50.870;20.682;2022-12-07T06:03:15;1.10;1.00
21762;DHT22;11203;50.870;20.682;2022-12-07T06:05:41;1.00;1.00
21762;DHT22;11203;50.870;20.682;2022-12-07T06:08:08;1.00;1.00
21762;DHT22;11203;50.870;20.682;2022-12-07T06:10:33;1.00;1.00
21762;DHT22;11203;50.870;20.682;2022-12-07T06:13:00;0.90;1.00
21762;DHT22;11203;50.870;20.682;2022-12-07T06:15:26;0.90;1.00
21762;DHT22;11203;50.870;20.682;2022-12-07T06:17:53;0.90;1.00
21762;DHT22;11203;50.870;20.682;2022-12-07T06:20:19;1.00;1.00
21762;DHT22;11203;50.870;20.682;2022-12-07T06:22:45;0.90;1.00
21762;DHT22;11203;50.870;20.682;2022-12-07T06:25:11;0.90;1.00
21762;DHT22;11203;50.870;20.682;2022-12-07T06:27:38;1.00;1.00
21762;DHT22;11203;50.870;20.682;2022-12-07T06:30:04;1.00;1.00
21762;DHT22;11203;50.870;20.682;2022-12-07T06:32:33;1.00;1.00
21762;DHT22;11203;50.870;20.682;2022-12-07T06:34:59;1.60;1.00
21762;DHT22;11203;50.870;20.682;2022-12-07T06:37:26;1.00;1.00
21762;DHT22;11203;50.870;20.682;2022-12-07T06:39:52;0.90;1.00
21762;DHT22;11203;50.870;20.682;2022-12-07T06:42:18;0.90;1.00
21762;DHT22;11203;50.870;20.682;2022-12-07T06:44:44;0.90;1.00
21762;DHT22;11203;50.870;20.682;2022-12-07T06:47:10;0.90;1.00
21762;DHT22;11203;50.870;20.682;2022-12-07T06:49:37;1.00;1.00
21762;DHT22;11203;50.870;20.682;2022-12-07T06:52:03;1.00;1.00
21762;DHT22;11203;50.870;20.682;2022-12-07T06:54:31;0.90;1.00
21762;DHT22;11203;50.870;20.682;2022-12-07T06:56:57;0.90;1.00
21762;DHT22;11203;50.870;20.682;2022-12-07T06:59:23;0.90;1.00
21762;DHT22;11203;50.870;20.682;2022-12-07T07:01:49;0.90;1.00
21762;DHT22;11203;50.870;20.682;2022-12-07T07:04:15;0.90;1.00
21762;DHT22;11203;50.870;20.682;2022-12-07T07:06:41;0.90;1.00
21762;DHT22;11203;50.870;20.682;2022-12-07T07:09:07;0.90;1.00
21762;DHT22;11203;50.870;20.682;2022-12-07T07:11:35;0.90;1.00
21762;DHT22;11203;50.870;20.682;2022-12-07T07:14:01;0.90;1.00
21762;DHT22;11203;50.870;20.682;2022-12-07T07:16:29;0.90;1.00
21762;DHT22;11203;50.870;20.682;2022-12-07T07:18:56;0.90;1.00
21762;DHT22;11203;50.870;20.682;2022-12-07T07:21:23;0.90;1.00
21762;DHT22;11203;50.870;20.682;2022-12-07T07:23:49;0.90;1.00
21762;DHT22;11203;50.870;20.682;2022-12-07T07:26:15;0.90;1.00
21762;DHT22;11203;50.870;20.682;2022-12-07T07:28:41;0.80;1.00
21762;DHT22;11203;50.870;20.682;2022-12-07T07:31:07;1.00;1.00
21762;DHT22;11203;50.870;20.682;2022-12-07T07:33:33;1.00;1.00
21762;DHT22;11203;50.870;20.682;2022-12-07T07:35:59;1.00;1.00
21762;DHT22;11203;50.870;20.682;2022-12-07T07:38:25;1.00;1.00
21762;DHT22;11203;50.870;20.682;2022-12-07T07:40:51;1.00;1.00
21762;DHT22;11203;50.870;20.682;2022-12-07T07:43:17;1.00;1.00
21762;DHT22;11203;50.870;20.682;2022-12-07T07:45:44;1.00;1.00
21762;DHT22;11203;50.870;20.682;2022-12-07T07:48:10;1.00;1.00
21762;DHT22;11203;50.870;20.682;2022-12-07T07:50:36;1.00;1.00
21762;DHT22;11203;50.870;20.682;2022-12-07T07:53:02;1.10;1.00
21762;DHT22;11203;50.870;20.682;2022-12-07T07:55:28;1.10;1.00
21762;DHT22;11203;50.870;20.682;2022-12-07T07:57:54;1.10;1.00
21762;DHT22;11203;50.870;20.682;2022-12-07T08:00:21;1.10;1.00
21762;DHT22;11203;50.870;20.682;2022-12-07T08:02:47;1.10;1.00
21762;DHT22;11203;50.870;20.682;2022-12-07T08:05:15;1.10;1.00
21762;DHT22;11203;50.870;20.682;2022-12-07T08:07:41;1.10;1.00
21762;DHT22;11203;50.870;20.682;2022-12-07T08:10:10;1.40;1.00
21762;DHT22;11203;50.870;20.682;2022-12-07T08:12:38;1.10;1.00
21762;DHT22;11203;50.870;20.682;2022-12-07T08:15:27;1.20;1.00
21762;DHT22;11203;50.870;20.682;2022-12-07T08:17:54;1.20;1.00
21762;DHT22;11203;50.870;20.682;2022-12-07T08:20:21;1.20;1.00
21762;DHT22;11203;50.870;20.682;2022-12-07T08:22:47;1.20;1.00
21762;DHT22;11203;50.870;20.682;2022-12-07T08:25:13;1.20;1.00
21762;DHT22;11203;50.870;20.682;2022-12-07T08:27:39;1.20;1.00
21762;DHT22;11203;50.870;20.682;2022-12-07T08:30:06;1.30;1.00
21762;DHT22;11203;50.870;20.682;2022-12-07T08:32:32;1.20;1.00
21762;DHT22;11203;50.870;20.682;2022-12-07T08:34:58;1.20;1.00
21762;DHT22;11203;50.870;20.682;2022-12-07T08:37:24;1.20;1.00
21762;DHT22;11203;50.870;20.682;2022-12-07T08:39:50;1.20;1.00
21762;DHT22;11203;50.870;20.682;2022-12-07T08:42:16;1.20;1.00
21762;DHT22;11203;50.870;20.682;2022-12-07T08:44:42;1.20;1.00
21762;DHT22;11203;50.870;20.682;2022-12-07T08:47:10;1.30;1.00
21762;DHT22;11203;50.870;20.682;2022-12-07T08:49:39;1.20;1.00
21762;DHT22;11203;50.870;20.682;2022-12-07T08:52:07;1.20;1.00
21762;DHT22;11203;50.870;20.682;2022-12-07T08:54:36;1.20;1.00
21762;DHT22;11203;50.870;20.682;2022-12-07T08:57:03;1.20;1.00
21762;DHT22;11203;50.870;20.682;2022-12-07T08:59:30;1.20;1.00
21762;DHT22;11203;50.870;20.682;2022-12-07T09:01:56;1.20;1.00
21762;DHT22;11203;50.870;20.682;2022-12-07T09:04:23;1.20;1.00
21762;DHT22;11203;50.870;20.682;2022-12-07T09:06:49;1.20;1.00
21762;DHT22;11203;50.870;20.682;2022-12-07T09:09:15;1.20;1.00
21762;DHT22;11203;50.870;20.682;2022-12-07T09:11:41;1.30;1.00
21762;DHT22;11203;50.870;20.682;2022-12-07T09:14:08;1.20;1.00
21762;DHT22;11203;50.870;20.682;2022-12-07T09:16:34;1.20;1.00
21762;DHT22;11203;50.870;20.682;2022-12-07T09:19:00;1.20;1.00
21762;DHT22;11203;50.870;20.682;2022-12-07T09:21:26;1.20;1.00
21762;DHT22;11203;50.870;20.682;2022-12-07T09:23:52;1.20;1.00
21762;DHT22;11203;50.870;20.682;2022-12-07T09:26:18;1.20;1.00
21762;DHT22;11203;50.870;20.682;2022-12-07T09:28:45;1.20;1.00
21762;DHT22;11203;50.870;20.682;2022-12-07T09:31:10;1.20;1.00
21762;DHT22;11203;50.870;20.682;2022-12-07T09:33:37;1.20;1.00
21762;DHT22;11203;50.870;20.682;2022-12-07T09:36:03;1.20;1.00
21762;DHT22;11203;50.870;20.682;2022-12-07T09:38:31;1.20;1.00
21762;DHT22;11203;50.870;20.682;2022-12-07T09:41:05;1.20;1.00
21762;DHT22;11203;50.870;20.682;2022-12-07T09:43:35;1.20;1.00
21762;DHT22;11203;50.870;20.682;2022-12-07T09:46:03;1.30;1.00
21762;DHT22;11203;50.870;20.682;2022-12-07T09:48:32;1.20;1.00
21762;DHT22;11203;50.870;20.682;2022-12-07T09:51:02;1.20;1.00
21762;DHT22;11203;50.870;20.682;2022-12-07T09:53:47;1.10;1.00
21762;DHT22;11203;50.870;20.682;2022-12-07T09:56:14;1.20;1.00
21762;DHT22;11203;50.870;20.682;2022-12-07T09:58:42;1.20;1.00
21762;DHT22;11203;50.870;20.682;2022-12-07T10:01:18;1.20;1.00
21762;DHT22;11203;50.870;20.682;2022-12-07T10:03:52;1.30;1.00
21762;DHT22;11203;50.870;20.682;2022-12-07T10:06:20;1.30;1.00
21762;DHT22;11203;50.870;20.682;2022-12-07T10:08:47;1.30;1.00
21762;DHT22;11203;50.870;20.682;2022-12-07T10:11:13;1.20;1.00
21762;DHT22;11203;50.870;20.682;2022-12-07T10:13:46;1.30;1.00
21762;DHT22;11203;50.870;20.682;2022-12-07T10:19:29;1.30;1.00
21762;DHT22;11203;50.870;20.682;2022-12-07T10:22:16;1.40;1.00
21762;DHT22;11203;50.870;20.682;2022-12-07T10:24:46;1.40;1.00
21762;DHT22;11203;50.870;20.682;2022-12-07T10:27:32;1.40;1.00
21762;DHT22;11203;50.870;20.682;2022-12-07T10:29:58;1.40;1.00
21762;DHT22;11203;50.870;20.682;2022-12-07T10:32:34;1.50;1.00
21762;DHT22;11203;50.870;20.682;2022-12-07T10:37:48;1.50;1.00
21762;DHT22;11203;50.870;20.682;2022-12-07T10:40:36;1.50;1.00
21762;DHT22;11203;50.870;20.682;2022-12-07T10:46:07;1.60;1.00
21762;DHT22;11203;50.870;20.682;2022-12-07T10:51:30;1.50;1.00
21762;DHT22;11203;50.870;20.682;2022-12-07T11:00:21;1.50;1.00
21762;DHT22;11203;50.870;20.682;2022-12-07T11:08:48;1.50;1.00
21762;DHT22;11203;50.870;20.682;2022-12-07T11:11:46;1.70;1.00
21762;DHT22;11203;50.870;20.682;2022-12-07T11:14:41;1.60;1.00
21762;DHT22;11203;50.870;20.682;2022-12-07T11:25:56;1.70;1.00
21762;DHT22;11203;50.870;20.682;2022-12-07T11:31:18;1.70;1.00
21762;DHT22;11203;50.870;20.682;2022-12-07T11:33:56;1.80;1.00
21762;DHT22;11203;50.870;20.682;2022-12-07T11:36:37;1.80;1.00
21762;DHT22;11203;50.870;20.682;2022-12-07T11:42:16;1.70;1.00
21762;DHT22;11203;50.870;20.682;2022-12-07T11:47:47;1.70;1.00
21762;DHT22;11203;50.870;20.682;2022-12-07T11:56:12;1.70;1.00
21762;DHT22;11203;50.870;20.682;2022-12-07T11:58:58;1.70;1.00
21762;DHT22;11203;50.870;20.682;2022-12-07T12:01:57;1.70;1.00
21762;DHT22;11203;50.870;20.682;2022-12-07T12:04:50;1.70;1.00
21762;DHT22;11203;50.870;20.682;2022-12-07T12:07:26;1.70;1.00
21762;DHT22;11203;50.870;20.682;2022-12-07T12:09:57;1.70;1.00
21762;DHT22;11203;50.870;20.682;2022-12-07T12:21:13;1.80;1.00
21762;DHT22;11203;50.870;20.682;2022-12-07T12:23:54;1.70;1.00
21762;DHT22;11203;50.870;20.682;2022-12-07T12:26:26;1.70;1.00
21762;DHT22;11203;50.870;20.682;2022-12-07T12:34:02;1.70;1.00
21762;DHT22;11203;50.870;20.682;2022-12-07T12:47:04;1.60;1.00
21762;DHT22;11203;50.870;20.682;2022-12-07T12:50:41;1.60;1.00
21762;DHT22;11203;50.870;20.682;2022-12-07T12:53:40;1.70;1.00
21762;DHT22;11203;50.870;20.682;2022-12-07T12:56:25;1.70;1.00
21762;DHT22;11203;50.870;20.682;2022-12-07T13:01:49;1.70;1.00
21762;DHT22;11203;50.870;20.682;2022-12-07T13:04:30;1.70;1.00
21762;DHT22;11203;50.870;20.682;2022-12-07T13:15:53;1.70;1.00
21762;DHT22;11203;50.870;20.682;2022-12-07T13:26:23;1.70;1.00
21762;DHT22;11203;50.870;20.682;2022-12-07T13:29:17;1.70;1.00
21762;DHT22;11203;50.870;20.682;2022-12-07T13:34:38;1.70;1.00
21762;DHT22;11203;50.870;20.682;2022-12-07T13:39:55;1.70;1.00
21762;DHT22;11203;50.870;20.682;2022-12-07T13:42:30;1.80;1.00
21762;DHT22;11203;50.870;20.682;2022-12-07T13:44:59;1.70;1.00
21762;DHT22;11203;50.870;20.682;2022-12-07T13:47:52;1.80;1.00
21762;DHT22;11203;50.870;20.682;2022-12-07T13:50:30;1.80;1.00
21762;DHT22;11203;50.870;20.682;2022-12-07T13:52:59;1.70;1.00
21762;DHT22;11203;50.870;20.682;2022-12-07T13:55:27;1.70;1.00
21762;DHT22;11203;50.870;20.682;2022-12-07T13:57:54;1.80;1.00
21762;DHT22;11203;50.870;20.682;2022-12-07T14:00:26;1.80;1.00
21762;DHT22;11203;50.870;20.682;2022-12-07T14:03:00;1.80;1.00
21762;DHT22;11203;50.870;20.682;2022-12-07T14:05:30;1.80;1.00
21762;DHT22;11203;50.870;20.682;2022-12-07T14:10:38;1.70;1.00
21762;DHT22;11203;50.870;20.682;2022-12-07T14:13:39;1.70;1.00
21762;DHT22;11203;50.870;20.682;2022-12-07T14:16:24;1.70;1.00
21762;DHT22;11203;50.870;20.682;2022-12-07T14:18:57;1.80;1.00
21762;DHT22;11203;50.870;20.682;2022-12-07T14:21:26;1.70;1.00
21762;DHT22;11203;50.870;20.682;2022-12-07T14:24:17;1.70;1.00
21762;DHT22;11203;50.870;20.682;2022-12-07T14:26:46;1.70;1.00
21762;DHT22;11203;50.870;20.682;2022-12-07T14:31:54;1.90;1.00
21762;DHT22;11203;50.870;20.682;2022-12-07T14:34:22;1.70;1.00
21762;DHT22;11203;50.870;20.682;2022-12-07T14:36:48;1.60;1.00
21762;DHT22;11203;50.870;20.682;2022-12-07T14:39:15;1.70;1.00
21762;DHT22;11203;50.870;20.682;2022-12-07T14:41:41;1.70;1.00
21762;DHT22;11203;50.870;20.682;2022-12-07T14:44:20;1.70;1.00
21762;DHT22;11203;50.870;20.682;2022-12-07T14:46:48;1.70;1.00
21762;DHT22;11203;50.870;20.682;2022-12-07T14:49:16;1.80;1.00
21762;DHT22;11203;50.870;20.682;2022-12-07T14:51:44;1.70;1.00
21762;DHT22;11203;50.870;20.682;2022-12-07T14:54:16;1.70;1.00
21762;DHT22;11203;50.870;20.682;2022-12-07T14:56:44;1.70;1.00
21762;DHT22;11203;50.870;20.682;2022-12-07T14:59:12;1.70;1.00
21762;DHT22;11203;50.870;20.682;2022-12-07T15:01:38;1.70;1.00
21762;DHT22;11203;50.870;20.682;2022-12-07T15:04:05;1.70;1.00
21762;DHT22;11203;50.870;20.682;2022-12-07T15:06:31;1.70;1.00
21762;DHT22;11203;50.870;20.682;2022-12-07T15:08:57;1.70;1.00
21762;DHT22;11203;50.870;20.682;2022-12-07T15:11:26;1.80;1.00
21762;DHT22;11203;50.870;20.682;2022-12-07T15:13:58;1.70;1.00
21762;DHT22;11203;50.870;20.682;2022-12-07T15:16:33;1.60;1.00
21762;DHT22;11203;50.870;20.682;2022-12-07T15:19:00;1.70;1.00
21762;DHT22;11203;50.870;20.682;2022-12-07T15:21:26;1.70;1.00
21762;DHT22;11203;50.870;20.682;2022-12-07T15:23:53;1.70;1.00
21762;DHT22;11203;50.870;20.682;2022-12-07T15:26:19;1.70;1.00
21762;DHT22;11203;50.870;20.682;2022-12-07T15:28:45;1.80;1.00
21762;DHT22;11203;50.870;20.682;2022-12-07T15:31:16;1.80;1.00
21762;DHT22;11203;50.870;20.682;2022-12-07T15:33:43;1.70;1.00
21762;DHT22;11203;50.870;20.682;2022-12-07T15:36:21;1.80;1.00
21762;DHT22;11203;50.870;20.682;2022-12-07T15:38:49;1.70;1.00
21762;DHT22;11203;50.870;20.682;2022-12-07T15:41:15;1.80;1.00
21762;DHT22;11203;50.870;20.682;2022-12-07T15:43:43;1.80;1.00
21762;DHT22;11203;50.870;20.682;2022-12-07T15:46:42;1.80;1.00
21762;DHT22;11203;50.870;20.682;2022-12-07T15:49:16;1.80;1.00
21762;DHT22;11203;50.870;20.682;2022-12-07T15:51:44;1.70;1.00
21762;DHT22;11203;50.870;20.682;2022-12-07T15:54:19;1.70;1.00
21762;DHT22;11203;50.870;20.682;2022-12-07T15:56:51;1.80;1.00
21762;DHT22;11203;50.870;20.682;2022-12-07T15:59:18;1.80;1.00
21762;DHT22;11203;50.870;20.682;2022-12-07T16:01:44;1.70;1.00
21762;DHT22;11203;50.870;20.682;2022-12-07T16:04:11;1.80;1.00
21762;DHT22;11203;50.870;20.682;2022-12-07T16:06:37;1.80;1.00
21762;DHT22;11203;50.870;20.682;2022-12-07T16:09:04;1.90;1.00
21762;DHT22;11203;50.870;20.682;2022-12-07T16:11:30;1.80;1.00
21762;DHT22;11203;50.870;20.682;2022-12-07T16:13:57;1.80;1.00
21762;DHT22;11203;50.870;20.682;2022-12-07T16:16:23;1.80;1.00
21762;DHT22;11203;50.870;20.682;2022-12-07T16:18:49;1.80;1.00
21762;DHT22;11203;50.870;20.682;2022-12-07T16:21:17;1.90;1.00
21762;DHT22;11203;50.870;20.682;2022-12-07T16:23:43;1.90;1.00
21762;DHT22;11203;50.870;20.682;2022-12-07T16:26:17;1.90;1.00
21762;DHT22;11203;50.870;20.682;2022-12-07T16:28:47;1.90;1.00
21762;DHT22;11203;50.870;20.682;2022-12-07T16:31:18;2.00;1.00
21762;DHT22;11203;50.870;20.682;2022-12-07T16:33:45;1.90;1.00
21762;DHT22;11203;50.870;20.682;2022-12-07T16:36:13;1.90;1.00
21762;DHT22;11203;50.870;20.682;2022-12-07T16:38:42;2.00;1.00
21762;DHT22;11203;50.870;20.682;2022-12-07T16:41:09;1.90;1.00
21762;DHT22;11203;50.870;20.682;2022-12-07T16:43:36;2.00;99.90
21762;DHT22;11203;50.870;20.682;2022-12-07T16:46:03;1.90;99.90
21762;DHT22;11203;50.870;20.682;2022-12-07T16:48:30;1.80;99.90
21762;DHT22;11203;50.870;20.682;2022-12-07T16:50:56;1.80;99.90
21762;DHT22;11203;50.870;20.682;2022-12-07T16:53:23;1.60;1.00
21762;DHT22;11203;50.870;20.682;2022-12-07T16:55:50;1.70;99.90
21762;DHT22;11203;50.870;20.682;2022-12-07T16:58:17;1.60;99.90
21762;DHT22;11203;50.870;20.682;2022-12-07T17:00:44;1.60;99.90
21762;DHT22;11203;50.870;20.682;2022-12-07T17:03:11;1.60;99.90
21762;DHT22;11203;50.870;20.682;2022-12-07T17:05:39;1.50;99.90
21762;DHT22;11203;50.870;20.682;2022-12-07T17:08:06;1.40;1.00
21762;DHT22;11203;50.870;20.682;2022-12-07T17:10:36;1.40;1.00
21762;DHT22;11203;50.870;20.682;2022-12-07T17:13:04;1.50;1.00
21762;DHT22;11203;50.870;20.682;2022-12-07T17:16:04;1.50;1.00
21762;DHT22;11203;50.870;20.682;2022-12-07T17:18:35;1.40;1.00
21762;DHT22;11203;50.870;20.682;2022-12-07T17:21:04;1.40;1.00
21762;DHT22;11203;50.870;20.682;2022-12-07T17:23:32;1.40;1.00
21762;DHT22;11203;50.870;20.682;2022-12-07T17:26:08;1.50;1.00
21762;DHT22;11203;50.870;20.682;2022-12-07T17:28:53;1.50;1.00
21762;DHT22;11203;50.870;20.682;2022-12-07T17:31:22;1.50;1.00
21762;DHT22;11203;50.870;20.682;2022-12-07T17:33:49;1.50;1.00
21762;DHT22;11203;50.870;20.682;2022-12-07T17:36:18;1.50;1.00
21762;DHT22;11203;50.870;20.682;2022-12-07T17:38:49;1.50;1.00
21762;DHT22;11203;50.870;20.682;2022-12-07T17:41:18;1.50;1.00
21762;DHT22;11203;50.870;20.682;2022-12-07T17:44:08;1.50;1.00
21762;DHT22;11203;50.870;20.682;2022-12-07T17:46:36;1.50;1.00
21762;DHT22;11203;50.870;20.682;2022-12-07T17:49:03;1.60;1.00
21762;DHT22;11203;50.870;20.682;2022-12-07T17:51:30;1.40;1.00
21762;DHT22;11203;50.870;20.682;2022-12-07T17:54:15;1.40;1.00
21762;DHT22;11203;50.870;20.682;2022-12-07T17:56:42;1.40;1.00
21762;DHT22;11203;50.870;20.682;2022-12-07T17:59:09;1.40;1.00
21762;DHT22;11203;50.870;20.682;2022-12-07T18:01:37;1.40;1.00
21762;DHT22;11203;50.870;20.682;2022-12-07T18:04:04;1.30;1.00
21762;DHT22;11203;50.870;20.682;2022-12-07T18:06:31;1.30;1.00
21762;DHT22;11203;50.870;20.682;2022-12-07T18:08:57;1.40;1.00
21762;DHT22;11203;50.870;20.682;2022-12-07T18:11:26;1.40;1.00
21762;DHT22;11203;50.870;20.682;2022-12-07T18:13:52;1.30;1.00
21762;DHT22;11203;50.870;20.682;2022-12-07T18:16:21;1.30;1.00